• Join FlightAware (Why Join?)
  • Login
  • US Flag 
07:55PM EDT


 

Airport Tracker/Info


-or-


 

Live Flight TrackerFlight Track Log ✈ EGF3681 ✈ 16-Aug-2013 ✈ KORD - KDAY

Flight Track Log - Related Links

Times and Time Zones

All times are in EDT time to prevent confusion due to time zone crossing. See the EGF3681 flight status page for this flight to view local times or setup timezone preferences in your user account.

Time Position Orientation Groundspeed Altitude Reporting Facility
EDT Latitude Longitude Course Direction KTS MPH feet Rate Location/Type
11:42PM 42.0167 -87.9333 95° East 170 196 1,900  Level Chicago TRACON
11:43PM 42.0333 -88.0000 289° West 217 250 3,800 1,980 Climbing Chicago TRACON
11:44PM 41.9667 -87.5360 90° East  Level FlightAware Approximate
11:44PM 42.0775 -87.9086 57° Northeast 233 268 7,000  Level Chicago Center
11:45PM 41.9549 -87.4158 98° East  Level FlightAware Approximate
11:45PM 42.0664 -87.8131 99° East 256 295 8,900  Level Chicago Center
11:46PM 41.9450 -87.2953 95° East  Level FlightAware Approximate
11:46PM 42.0494 -87.7097 102° East 278 320 11,100  Level Chicago Center
11:47PM 41.9363 -87.1746 95° East  Level FlightAware Approximate
11:47PM 42.0306 -87.5978 103° East 300 345 12,100  Level Chicago Center
11:48PM 41.9961 -87.4775 111° Southeast 346 398 13,200 1,080 Climbing Chicago Center
11:49PM 41.9503 -87.3553 117° Southeast 373 429 14,400 1,380 Climbing Chicago Center
11:50PM 41.9347 -87.1939 97° East 366 421 16,100 1,500 Climbing Chicago Center
11:51PM 41.9183 -87.0589 99° East 367 422 17,500 1,260 Climbing Chicago Center
11:52PM 41.8492 -86.9531 131° Southeast 375 432 18,700 1,260 Climbing Chicago Center
11:53PM 41.7781 -86.8514 133° Southeast 375 432 20,100 1,140 Climbing Chicago Center
11:54PM 41.7050 -86.7450 133° Southeast 385 443 21,000 420 Climbing Chicago Center
11:55PM 41.6331 -86.6406 133° Southeast 407 468 21,000  Level Chicago Center
11:56PM 41.5514 -86.5208 132° Southeast 433 498 21,000  Level Chicago Center
11:57PM 41.4697 -86.4039 133° Southeast 434 499 21,000  Level Chicago Center
11:58PM 41.3889 -86.2872 133° Southeast 432 497 21,000  Level Chicago Center
11:59PM 41.2917 -86.1456 132° Southeast 436 502 21,000  Level Chicago Center
12:00AM 41.2083 -86.0292 134° Southeast 437 503 21,000  Level Chicago Center
12:01AM 41.1269 -85.9114 133° Southeast 436 502 21,000  Level Chicago Center
12:02AM 41.0436 -85.7947 133° Southeast 439 505 21,000 -120 Level Chicago Center
12:03AM 40.9619 -85.6769 133° Southeast 437 503 20,800 -360 Descending Chicago Center
12:04AM 40.8800 -85.5642 134° Southeast 430 495 20,300 -480 Descending Chicago Center
12:05AM 40.7989 -85.4489 133° Southeast 430 495 19,900 -480 Descending Chicago Center
12:06AM 40.7169 -85.3342 133° Southeast 432 497 19,400 -660 Descending Chicago Center
12:07AM 40.6397 -85.2264 133° Southeast 429 494 18,600 -840 Descending Chicago Center
12:08AM 40.5597 -85.1147 133° Southeast 420 483 17,800 -1,200 Descending Indianapolis Center
12:09AM 40.5108 -85.0481 134° Southeast 415 478 16,900 -1,500 Descending Indianapolis Center
12:09AM 40.4808 -85.0075 134° Southeast 412 474 16,300 -1,380 Descending Indianapolis Center
12:10AM 40.4322 -84.9392 133° Southeast 402 463 15,500 -1,560 Descending Indianapolis Center
12:11AM 40.3497 -84.8489 140° Southeast 392 451 14,000 -1,440 Descending Indianapolis Center
12:11AM 40.3150 -84.8125 141° Southeast 391 450 13,400 -1,500 Descending Indianapolis Center
12:12AM 40.2647 -84.7614 142° Southeast 389 448 12,500 -1,500 Descending Indianapolis Center
12:13AM 40.1831 -84.6803 143° Southeast 370 426 11,200 -1,200 Descending Indianapolis Center
12:13AM 40.1522 -84.6469 140° Southeast 360 414 10,700 -1,620 Descending Indianapolis Center
12:14AM 40.0906 -84.5817 141° Southeast 300 345 8,800 -2,100 Descending Indianapolis Center
12:15AM 40.0297 -84.5206 142° Southeast 280 322 6,500 -1,860 Descending Indianapolis Center
12:17AM 39.9733 -84.4617 141° Southeast 266 306 5,100 -1,200 Descending Indianapolis Center
12:18AM 39.9189 -84.4081 143° Southeast 252 290 4,100 -1,200 Descending Indianapolis Center
12:19AM 39.8708 -84.3589 142° Southeast 233 268 2,700 -960 Descending Indianapolis Center
12:20AM 39.8636 -84.3144 102° East 166 191 2,200 -600 Descending Indianapolis Center
12:21AM 39.8808 -84.2719 62° Northeast 141 162 1,500 -480 Descending Indianapolis Center
12:22AM 39.9028 -84.2311 55° Northeast 135 155 1,300 -240 Descending Indianapolis Center